Time;durP1;ratioP1;P1;durP2;ratioP2;P2;SDS_P1;SDS_P2;PMS_P1;PMS_P2;Temp;Humidity;BMP_temperature;BMP_pressure;BME280_temperature;BME280_humidity;BME280_pressure;Samples;Min_cycle;Max_cycle;Signal;HPM_P1;HPM_P2
2022/01/27 00:01:53;;;;;;;;;;;;;;;;;;5075155;28;28313;-86
2022/01/27 00:04:27;;;;;;;;;;;;;;;;;;5073392;28;28394;-87
2022/01/27 00:06:52;;;;;;;;;;;;;;;;;;5073787;28;28317;-88
2022/01/27 00:09:46;;;;;;;;;;;;;;;;;;5075308;28;28443;-87
2022/01/27 00:12:03;;;;;;;;;;;;;;;;;;5074626;28;28647;-88
2022/01/27 00:14:28;;;;;;;;;;;;;;;;;;5074850;28;28573;-87
2022/01/27 00:16:58;;;;;;;;;;;;;;;;;;5075857;28;28457;-86
2022/01/27 00:19:24;;;;;;;;;;;;;;;;;;5078306;28;27771;-87
2022/01/27 00:21:49;;;;;;;;;;;;;;;;;;5078661;28;28736;-87
2022/01/27 00:24:15;;;;;;;;;;;;;;;;;;5078228;28;29297;-87
2022/01/27 00:26:40;;;;;;;;;;;;;;;;;;5076987;28;28276;-87
2022/01/27 00:29:05;;;;;;;;;;;;;;;;;;5078424;28;28246;-87
2022/01/27 00:31:30;;;;;;;;;;;;;;;;;;5077042;28;28347;-87
2022/01/27 00:33:55;;;;;;;;;;;;;;;;;;5078076;28;28322;-87
2022/01/27 00:36:20;;;;;;;;;;;;;;;;;;5076879;28;28765;-88
2022/01/27 00:38:46;;;;;;;;;;;;;;;;;;5076598;28;28297;-87
2022/01/27 00:41:11;;;;;;;;;;;;;;;;;;5076738;28;28391;-88
2022/01/27 00:43:36;;;;;;;;;;;;;;;;;;5076608;28;29658;-88
2022/01/27 00:46:01;;;;;;;;;;;;;;;;;;5076522;28;28384;-88
2022/01/27 00:48:26;;;;;;;;;;;;;;;;;;5078032;28;28313;-87
2022/01/27 00:50:58;;;;;;;;;;;;;;;;;;5078152;28;28273;-87
2022/01/27 00:55:52;;;;;;;;;;;;;;;;;;5077903;28;28280;-87
2022/01/27 01:01:06;;;;;;;;;;;;;;;;;;5077818;28;28347;-88
2022/01/27 01:03:36;;;;;;;;;;;;;;;;;;5077921;28;28584;-88
2022/01/27 01:16:53;;;;;;;;;;;;;;;;;;5077408;28;28355;-87
2022/01/27 01:33:10;;;;;;;;;;;;;;;;;;5057432;28;28532;-88
2022/01/27 01:35:35;;;;;;;;;;;;;;;;;;5054124;28;28391;-87
2022/01/27 01:38:01;;;;;;;;;;;;;;;;;;5055826;28;28382;-87
2022/01/27 01:40:26;;;;;;;;;;;;;;;;;;5056916;28;28529;-88
2022/01/27 01:42:51;;;;;;;;;;;;;;;;;;5057630;28;28471;-87
2022/01/27 01:45:19;;;;;;;;;;;;;;;;;;5039059;28;30871;-87
2022/01/27 01:47:44;;;;;;;;;;;;;;;;;;5042661;28;28448;-88
2022/01/27 01:50:09;;;;;;;;;;;;;;;;;;5059044;28;28348;-87
2022/01/27 01:52:34;;;;;;;;;;;;;;;;;;5077203;28;28293;-88
2022/01/27 01:54:59;;;;;;;;;;;;;;;;;;5077172;28;28440;-88
2022/01/27 01:57:25;;;;;;;;;;;;;;;;;;5076794;28;28470;-88
2022/01/27 01:59:50;;;;;;;;;;;;;;;;;;5077012;28;28562;-88
2022/01/27 02:02:15;;;;;;;;;;;;;;;;;;5077751;28;28568;-87
2022/01/27 02:04:40;;;;;;;;;;;;;;;;;;5075045;28;30114;-87
2022/01/27 02:07:12;;;;;;;;;;;;;;;;;;5081493;28;28354;-88
2022/01/27 02:10:06;;;;;;;;;;;;;;;;;;5097007;28;28379;-88
2022/01/27 02:18:00;;;;;;;;;;;;;;;;;;5056240;28;28424;-88
2022/01/27 02:20:25;;;;;;;;;;;;;;;;;;5067026;28;28302;-87
2022/01/27 02:22:50;;;;;;;;;;;;;;;;;;5097258;28;28323;-88
2022/01/27 02:25:17;;;;;;;;;;;;;;;;;;5078352;28;30179;-87
2022/01/27 02:27:42;;;;;;;;;;;;;;;;;;5072103;28;28507;-87
2022/01/27 02:30:07;;;;;;;;;;;;;;;;;;5076516;28;28521;-87
2022/01/27 02:32:33;;;;;;;;;;;;;;;;;;5074864;28;28328;-88
2022/01/27 02:34:59;;;;;;;;;;;;;;;;;;5058245;28;28428;-87
2022/01/27 02:37:24;;;;;;;;;;;;;;;;;;5058126;28;28341;-87
2022/01/27 02:39:50;;;;;;;;;;;;;;;;;;5076391;28;28317;-87
2022/01/27 02:42:15;;;;;;;;;;;;;;;;;;5057670;28;28385;-88
2022/01/27 02:44:40;;;;;;;;;;;;;;;;;;5055854;28;29174;-87
2022/01/27 02:47:05;;;;;;;;;;;;;;;;;;5056284;28;28483;-88
2022/01/27 02:49:31;;;;;;;;;;;;;;;;;;5056191;28;28321;-88
2022/01/27 02:51:56;;;;;;;;;;;;;;;;;;5056154;28;28380;-88
2022/01/27 02:54:21;;;;;;;;;;;;;;;;;;5038033;28;28490;-90
2022/01/27 02:56:47;;;;;;;;;;;;;;;;;;5037841;28;28408;-88
2022/01/27 02:59:12;;;;;;;;;;;;;;;;;;5073645;28;28540;-87
2022/01/27 03:01:37;;;;;;;;;;;;;;;;;;5076033;28;28336;-87
2022/01/27 03:04:02;;;;;;;;;;;;;;;;;;5057492;28;30508;-88
2022/01/27 03:06:27;;;;;;;;;;;;;;;;;;5053241;28;28346;-87
2022/01/27 03:08:52;;;;;;;;;;;;;;;;;;5076164;28;28390;-88
2022/01/27 03:11:17;;;;;;;;;;;;;;;;;;5060477;28;28293;-88
2022/01/27 03:13:43;;;;;;;;;;;;;;;;;;5055344;28;28622;-87
2022/01/27 03:16:08;;;;;;;;;;;;;;;;;;5055736;28;28368;-88
2022/01/27 03:18:33;;;;;;;;;;;;;;;;;;5060475;28;28466;-87
2022/01/27 03:20:59;;;;;;;;;;;;;;;;;;5057847;28;28229;-89
2022/01/27 03:23:24;;;;;;;;;;;;;;;;;;5075616;28;29163;-88
2022/01/27 03:25:49;;;;;;;;;;;;;;;;;;5075625;28;28341;-88
2022/01/27 03:28:15;;;;;;;;;;;;;;;;;;5057431;28;28273;-88
2022/01/27 03:30:40;;;;;;;;;;;;;;;;;;5075912;28;28295;-88
2022/01/27 03:33:05;;;;;;;;;;;;;;;;;;5072642;28;28445;-87
2022/01/27 03:35:30;;;;;;;;;;;;;;;;;;5037447;28;28494;-88
2022/01/27 03:37:55;;;;;;;;;;;;;;;;;;5055305;28;28346;-87
2022/01/27 03:40:20;;;;;;;;;;;;;;;;;;5055398;28;28328;-88
2022/01/27 03:42:51;;;;;;;;;;;;;;;;;;5055189;28;28393;-87
2022/01/27 03:45:16;;;;;;;;;;;;;;;;;;5055383;28;28356;-87
2022/01/27 03:47:41;;;;;;;;;;;;;;;;;;5038080;28;28361;-87
2022/01/27 03:50:06;;;;;;;;;;;;;;;;;;5056914;28;28554;-88
2022/01/27 03:52:31;;;;;;;;;;;;;;;;;;5075283;28;29387;-88
2022/01/27 03:54:56;;;;;;;;;;;;;;;;;;5075488;28;28388;-87
2022/01/27 03:57:21;;;;;;;;;;;;;;;;;;5075257;28;28316;-88
2022/01/27 03:59:47;;;;;;;;;;;;;;;;;;5075355;28;28335;-87
2022/01/27 04:02:12;;;;;;;;;;;;;;;;;;5075111;28;29528;-87
2022/01/27 04:04:37;;;;;;;;;;;;;;;;;;5070718;28;28553;-89
2022/01/27 04:07:03;;;;;;;;;;;;;;;;;;5073064;28;28556;-88
2022/01/27 04:09:28;;;;;;;;;;;;;;;;;;5075351;28;28308;-87
2022/01/27 04:11:53;;;;;;;;;;;;;;;;;;5075001;28;28415;-88
2022/01/27 04:14:19;;;;;;;;;;;;;;;;;;5056711;28;28726;-87
2022/01/27 04:16:44;;;;;;;;;;;;;;;;;;5056514;28;28416;-86
2022/01/27 04:19:09;;;;;;;;;;;;;;;;;;5055148;28;28396;-88
2022/01/27 04:21:34;;;;;;;;;;;;;;;;;;5036752;28;29772;-88
2022/01/27 04:23:59;;;;;;;;;;;;;;;;;;5036829;28;28586;-88
2022/01/27 04:26:33;;;;;;;;;;;;;;;;;;5054824;28;28293;-88
2022/01/27 04:28:58;;;;;;;;;;;;;;;;;;5054869;28;28529;-88
2022/01/27 04:31:25;;;;;;;;;;;;;;;;;;5071845;28;28348;-89
2022/01/27 04:33:51;;;;;;;;;;;;;;;;;;5075158;28;28470;-89
2022/01/27 04:36:23;;;;;;;;;;;;;;;;;;5073715;28;28428;-87
2022/01/27 04:41:50;;;;;;;;;;;;;;;;;;5074523;28;28480;-88
2022/01/27 04:49:34;;;;;;;;;;;;;;;;;;5032385;28;28369;-88
2022/01/27 04:51:59;;;;;;;;;;;;;;;;;;5031856;28;28623;-88
2022/01/27 04:57:01;;;;;;;;;;;;;;;;;;5012686;28;28401;-88
2022/01/27 04:59:30;;;;;;;;;;;;;;;;;;5012411;28;28382;-88
2022/01/27 05:02:03;;;;;;;;;;;;;;;;;;4998529;28;29437;-88
2022/01/27 05:04:35;;;;;;;;;;;;;;;;;;4995587;28;28411;-88
2022/01/27 05:07:00;;;;;;;;;;;;;;;;;;5002778;28;28492;-87
2022/01/27 05:09:25;;;;;;;;;;;;;;;;;;5015947;28;28354;-87
2022/01/27 05:11:55;;;;;;;;;;;;;;;;;;4995679;28;29212;-88
2022/01/27 05:14:23;;;;;;;;;;;;;;;;;;4995394;28;29094;-87
2022/01/27 05:16:48;;;;;;;;;;;;;;;;;;4997107;28;28385;-88
2022/01/27 05:19:13;;;;;;;;;;;;;;;;;;4995547;28;28476;-88
2022/01/27 05:21:39;;;;;;;;;;;;;;;;;;4995636;28;28520;-87
2022/01/27 05:24:04;;;;;;;;;;;;;;;;;;4995541;28;28421;-87
2022/01/27 05:26:29;;;;;;;;;;;;;;;;;;5024516;28;28560;-88
2022/01/27 05:28:54;;;;;;;;;;;;;;;;;;5057595;28;28384;-87
2022/01/27 05:31:19;;;;;;;;;;;;;;;;;;5039093;28;28660;-87
2022/01/27 05:33:44;;;;;;;;;;;;;;;;;;5062936;28;28466;-87
2022/01/27 05:36:09;;;;;;;;;;;;;;;;;;5077800;28;28439;-88
2022/01/27 05:38:37;;;;;;;;;;;;;;;;;;5058525;28;28463;-87
2022/01/27 05:41:02;;;;;;;;;;;;;;;;;;5076070;28;28463;-87
2022/01/27 05:43:27;;;;;;;;;;;;;;;;;;5077349;28;28351;-87
2022/01/27 05:45:52;;;;;;;;;;;;;;;;;;5059144;28;28512;-87
2022/01/27 05:48:17;;;;;;;;;;;;;;;;;;5066906;28;28395;-87
2022/01/27 05:50:43;;;;;;;;;;;;;;;;;;5057012;28;28688;-87
2022/01/27 05:53:08;;;;;;;;;;;;;;;;;;5070230;28;28347;-87
2022/01/27 05:55:33;;;;;;;;;;;;;;;;;;5077020;28;28324;-87
2022/01/27 05:57:58;;;;;;;;;;;;;;;;;;5077262;28;28407;-87
2022/01/27 06:00:23;;;;;;;;;;;;;;;;;;5072404;28;28333;-87
2022/01/27 06:02:48;;;;;;;;;;;;;;;;;;5054836;28;28438;-87
2022/01/27 06:05:13;;;;;;;;;;;;;;;;;;5077256;28;28268;-86
2022/01/27 06:07:38;;;;;;;;;;;;;;;;;;5077209;28;28221;-87
2022/01/27 06:10:03;;;;;;;;;;;;;;;;;;5058576;28;28496;-87
2022/01/27 06:12:29;;;;;;;;;;;;;;;;;;5076821;28;28248;-87
2022/01/27 06:14:54;;;;;;;;;;;;;;;;;;5074569;28;28229;-88
2022/01/27 06:17:19;;;;;;;;;;;;;;;;;;5041577;28;28363;-88
2022/01/27 06:19:45;;;;;;;;;;;;;;;;;;5044512;28;30012;-91
2022/01/27 06:22:11;;;;;;;;;;;;;;;;;;5076674;28;28233;-87
2022/01/27 06:24:36;;;;;;;;;;;;;;;;;;5076696;28;28287;-87
2022/01/27 06:27:02;;;;;;;;;;;;;;;;;;5071479;28;28494;-87
2022/01/27 06:29:27;;;;;;;;;;;;;;;;;;5071384;28;28601;-88
2022/01/27 06:31:52;;;;;;;;;;;;;;;;;;5069933;28;28463;-88
2022/01/27 06:34:17;;;;;;;;;;;;;;;;;;5074426;28;28404;-87
2022/01/27 06:36:42;;;;;;;;;;;;;;;;;;5065329;28;28391;-86
2022/01/27 06:39:07;;;;;;;;;;;;;;;;;;5059916;28;28773;-86
2022/01/27 06:41:32;;;;;;;;;;;;;;;;;;5052512;28;31388;-86
2022/01/27 06:44:00;;;;;;;;;;;;;;;;;;5076357;28;28300;-86
2022/01/27 06:46:25;;;;;;;;;;;;;;;;;;5058035;28;28440;-86
2022/01/27 06:48:50;;;;;;;;;;;;;;;;;;5072576;28;29592;-87
2022/01/27 06:51:15;;;;;;;;;;;;;;;;;;5056065;28;28361;-86
2022/01/27 06:53:41;;;;;;;;;;;;;;;;;;5056228;28;28344;-86
2022/01/27 06:56:07;;;;;;;;;;;;;;;;;;5038107;28;28453;-86
2022/01/27 06:58:34;;;;;;;;;;;;;;;;;;5055855;28;28664;-86
2022/01/27 07:00:59;;;;;;;;;;;;;;;;;;5055900;28;28242;-86
2022/01/27 07:03:24;;;;;;;;;;;;;;;;;;5055952;28;28290;-86
2022/01/27 07:05:49;;;;;;;;;;;;;;;;;;5056115;28;28303;-86
2022/01/27 07:08:14;;;;;;;;;;;;;;;;;;5055709;28;29506;-86
2022/01/27 07:10:39;;;;;;;;;;;;;;;;;;5055957;28;28451;-86
2022/01/27 07:13:04;;;;;;;;;;;;;;;;;;5055597;28;28313;-86
2022/01/27 07:15:30;;;;;;;;;;;;;;;;;;5055692;28;28432;-86
2022/01/27 07:17:55;;;;;;;;;;;;;;;;;;5055498;28;28346;-85
2022/01/27 07:20:21;;;;;;;;;;;;;;;;;;5055569;28;28487;-86
2022/01/27 07:22:46;;;;;;;;;;;;;;;;;;5055878;28;28308;-86
2022/01/27 07:25:11;;;;;;;;;;;;;;;;;;5054787;28;28324;-86
2022/01/27 07:27:36;;;;;;;;;;;;;;;;;;5055241;28;28534;-86
2022/01/27 07:30:01;;;;;;;;;;;;;;;;;;5055568;28;28312;-86
2022/01/27 07:32:26;;;;;;;;;;;;;;;;;;5037401;28;28336;-86
2022/01/27 07:34:51;;;;;;;;;;;;;;;;;;5055642;28;28300;-86
2022/01/27 07:37:16;;;;;;;;;;;;;;;;;;5055104;28;28313;-85
2022/01/27 07:39:41;;;;;;;;;;;;;;;;;;5055108;28;31374;-86
2022/01/27 07:42:07;;;;;;;;;;;;;;;;;;5069190;28;28471;-88
2022/01/27 07:44:32;;;;;;;;;;;;;;;;;;5057790;28;28305;-93
2022/01/27 07:46:57;;;;;;;;;;;;;;;;;;5057714;28;29881;-91
2022/01/27 07:49:22;;;;;;;;;;;;;;;;;;5058194;28;28668;-91
2022/01/27 07:51:47;;;;;;;;;;;;;;;;;;5059167;28;28402;-92
2022/01/27 07:54:12;;;;;;;;;;;;;;;;;;5060763;28;27920;-92
2022/01/27 07:56:37;;;;;;;;;;;;;;;;;;5059240;28;29842;-91
2022/01/27 07:59:02;;;;;;;;;;;;;;;;;;5058980;28;28816;-93
2022/01/27 08:01:28;;;;;;;;;;;;;;;;;;5059471;28;28445;-92
2022/01/27 08:03:53;;;;;;;;;;;;;;;;;;5059160;28;28417;-91
2022/01/27 08:06:18;;;;;;;;;;;;;;;;;;5058560;28;30038;-91
2022/01/27 08:08:43;;;;;;;;;;;;;;;;;;5058653;28;28476;-91
2022/01/27 08:11:08;;;;;;;;;;;;;;;;;;5058568;28;28451;-92
2022/01/27 08:13:34;;;;;;;;;;;;;;;;;;5060640;28;28368;-94
2022/01/27 08:15:59;;;;;;;;;;;;;;;;;;5062365;28;29809;-90
2022/01/27 08:18:24;;;;;;;;;;;;;;;;;;5062410;28;28192;-94
2022/01/27 08:20:50;;;;;;;;;;;;;;;;;;5061422;28;28305;-93
2022/01/27 08:23:15;;;;;;;;;;;;;;;;;;5061511;28;27943;-92
2022/01/27 08:25:40;;;;;;;;;;;;;;;;;;5062493;28;30776;-92
2022/01/27 08:28:15;;;;;;;;;;;;;;;;;;5061334;28;29338;-93
2022/01/27 08:30:46;;;;;;;;;;;;;;;;;;5079926;28;28402;-93
2022/01/27 08:33:15;;;;;;;;;;;;;;;;;;5062476;28;28508;-93
2022/01/27 08:35:40;;;;;;;;;;;;;;;;;;5065521;28;29977;-93
2022/01/27 08:38:06;;;;;;;;;;;;;;;;;;5065245;28;29189;-94
2022/01/27 08:40:31;;;;;;;;;;;;;;;;;;5065076;28;28443;-92
2022/01/27 08:42:57;;;;;;;;;;;;;;;;;;5065135;28;28395;-94
2022/01/27 08:45:24;;;;;;;;;;;;;;;;;;5064500;28;29929;-93
2022/01/27 08:47:50;;;;;;;;;;;;;;;;;;5064655;28;28449;-93
2022/01/27 08:50:18;;;;;;;;;;;;;;;;;;5065065;28;28424;-93
2022/01/27 08:52:43;;;;;;;;;;;;;;;;;;5065865;28;27941;-93
2022/01/27 08:55:08;;;;;;;;;;;;;;;;;;5063773;28;29749;-93
2022/01/27 08:57:33;;;;;;;;;;;;;;;;;;5065019;28;29133;-94
2022/01/27 09:00:00;;;;;;;;;;;;;;;;;;5066096;28;28407;-94
2022/01/27 09:02:26;;;;;;;;;;;;;;;;;;5064766;28;28567;-94
2022/01/27 09:04:52;;;;;;;;;;;;;;;;;;5063802;28;30222;-93
2022/01/27 09:07:17;;;;;;;;;;;;;;;;;;5064634;28;28729;-93
2022/01/27 09:09:42;;;;;;;;;;;;;;;;;;5064373;28;27792;-94
2022/01/27 09:12:07;;;;;;;;;;;;;;;;;;5063885;28;28403;-94
2022/01/27 09:14:32;;;;;;;;;;;;;;;;;;5063977;28;29776;-93
2022/01/27 09:16:57;;;;;;;;;;;;;;;;;;5063417;28;28923;-93
2022/01/27 09:19:25;;;;;;;;;;;;;;;;;;5063636;28;27808;-93
2022/01/27 09:21:51;;;;;;;;;;;;;;;;;;5063293;28;28336;-93
2022/01/27 09:24:18;;;;;;;;;;;;;;;;;;5063151;28;29940;-93
2022/01/27 09:26:52;;;;;;;;;;;;;;;;;;5063186;28;28500;-93
2022/01/27 09:29:17;;;;;;;;;;;;;;;;;;5062011;28;28531;-91
2022/01/27 09:31:42;;;;;;;;;;;;;;;;;;5078729;28;28233;-92
2022/01/27 09:34:07;;;;;;;;;;;;;;;;;;5060808;28;29595;-90
2022/01/27 09:36:33;;;;;;;;;;;;;;;;;;5060219;28;28693;-91
2022/01/27 09:38:58;;;;;;;;;;;;;;;;;;5059602;28;28199;-90
2022/01/27 09:41:23;;;;;;;;;;;;;;;;;;5077989;28;28474;-90
2022/01/27 09:43:48;;;;;;;;;;;;;;;;;;5059272;28;28643;-90
2022/01/27 09:46:16;;;;;;;;;;;;;;;;;;5059649;28;28482;-90
2022/01/27 09:48:45;;;;;;;;;;;;;;;;;;5058809;28;28427;-90
2022/01/27 09:53:44;;;;;;;;;;;;;;;;;;5076967;28;28411;-90
2022/01/27 09:56:09;;;;;;;;;;;;;;;;;;5077709;28;27726;-90
2022/01/27 09:58:34;;;;;;;;;;;;;;;;;;5077270;28;28321;-90
2022/01/27 10:01:00;;;;;;;;;;;;;;;;;;5059319;28;28713;-90
2022/01/27 10:03:28;;;;;;;;;;;;;;;;;;5059115;28;30456;-90
2022/01/27 10:05:53;;;;;;;;;;;;;;;;;;5077295;28;28497;-90
2022/01/27 10:08:20;;;;;;;;;;;;;;;;;;5059354;28;28512;-91
2022/01/27 10:10:45;;;;;;;;;;;;;;;;;;5059442;28;28549;-90
2022/01/27 10:13:11;;;;;;;;;;;;;;;;;;5059361;28;29636;-90
2022/01/27 10:15:37;;;;;;;;;;;;;;;;;;5077385;28;28431;-90
2022/01/27 10:18:02;;;;;;;;;;;;;;;;;;5058980;28;28327;-90
2022/01/27 10:20:27;;;;;;;;;;;;;;;;;;5077375;28;27796;-90
2022/01/27 10:22:53;;;;;;;;;;;;;;;;;;5058806;28;30580;-91
2022/01/27 10:25:21;;;;;;;;;;;;;;;;;;5077385;28;28416;-89
2022/01/27 10:27:57;;;;;;;;;;;;;;;;;;5059206;28;28389;-91
2022/01/27 10:32:50;;;;;;;;;;;;;;;;;;5076886;28;28533;-91
2022/01/27 10:35:16;;;;;;;;;;;;;;;;;;5058684;28;28457;-89
2022/01/27 10:37:41;;;;;;;;;;;;;;;;;;5076500;28;28509;-90
2022/01/27 10:40:06;;;;;;;;;;;;;;;;;;5076772;28;28430;-90
2022/01/27 10:42:31;;;;;;;;;;;;;;;;;;5059539;28;28479;-90
2022/01/27 10:44:57;;;;;;;;;;;;;;;;;;5078779;28;28486;-91
2022/01/27 10:47:26;;;;;;;;;;;;;;;;;;5077398;28;28426;-90
2022/01/27 10:50:04;;;;;;;;;;;;;;;;;;5059988;28;28256;-90
2022/01/27 10:55:00;;;;;;;;;;;;;;;;;;5076179;28;28493;-90
2022/01/27 10:57:26;;;;;;;;;;;;;;;;;;5058161;28;28360;-90
2022/01/27 10:59:51;;;;;;;;;;;;;;;;;;5058090;28;28531;-91
2022/01/27 11:02:16;;;;;;;;;;;;;;;;;;5076269;28;28671;-91
2022/01/27 11:04:41;;;;;;;;;;;;;;;;;;5076256;28;28293;-89
2022/01/27 11:07:08;;;;;;;;;;;;;;;;;;5057967;28;28346;-89
2022/01/27 11:09:35;;;;;;;;;;;;;;;;;;5058045;28;28591;-91
2022/01/27 11:12:06;;;;;;;;;;;;;;;;;;5057969;28;30139;-90
2022/01/27 11:14:31;;;;;;;;;;;;;;;;;;5076215;28;27742;-90
2022/01/27 11:16:58;;;;;;;;;;;;;;;;;;5057855;28;28278;-89
2022/01/27 11:19:52;;;;;;;;;;;;;;;;;;5058025;28;28624;-90
2022/01/27 11:22:39;;;;;;;;;;;;;;;;;;5075867;28;28435;-91
2022/01/27 11:27:25;;;;;;;;;;;;;;;;;;5076266;28;27681;-89
2022/01/27 11:29:52;;;;;;;;;;;;;;;;;;5076095;28;28242;-89
2022/01/27 11:32:17;;;;;;;;;;;;;;;;;;5057588;28;29912;-90
2022/01/27 11:34:42;;;;;;;;;;;;;;;;;;5075927;28;28352;-90
2022/01/27 11:37:07;;;;;;;;;;;;;;;;;;5075798;28;28280;-89
2022/01/27 11:39:32;;;;;;;;;;;;;;;;;;5075950;28;28369;-90
2022/01/27 11:41:58;;;;;;;;;;;;;;;;;;5075271;28;29697;-90
2022/01/27 11:44:23;;;;;;;;;;;;;;;;;;5057493;28;28547;-90
2022/01/27 11:46:48;;;;;;;;;;;;;;;;;;5057505;28;28616;-89
2022/01/27 11:49:13;;;;;;;;;;;;;;;;;;5075674;28;35122;-88
2022/01/27 11:51:38;;;;;;;;;;;;;;;;;;5075217;28;28580;-88
2022/01/27 11:54:03;;;;;;;;;;;;;;;;;;5075310;28;28416;-88
2022/01/27 11:56:30;;;;;;;;;;;;;;;;;;5075394;28;28408;-88
2022/01/27 11:58:55;;;;;;;;;;;;;;;;;;5075134;28;28558;-88
2022/01/27 12:01:21;;;;;;;;;;;;;;;;;;5056956;28;28497;-89
2022/01/27 12:03:46;;;;;;;;;;;;;;;;;;5075299;28;28334;-88
2022/01/27 12:06:11;;;;;;;;;;;;;;;;;;5075180;28;28339;-88
2022/01/27 12:08:36;;;;;;;;;;;;;;;;;;5057274;28;28403;-88
2022/01/27 12:11:05;;;;;;;;;;;;;;;;;;5056932;28;29871;-88
2022/01/27 12:13:35;;;;;;;;;;;;;;;;;;5060040;28;28496;-89
2022/01/27 12:16:00;;;;;;;;;;;;;;;;;;5079053;28;28356;-88
2022/01/27 12:18:25;;;;;;;;;;;;;;;;;;5060313;28;28566;-88
2022/01/27 12:20:50;;;;;;;;;;;;;;;;;;5061734;28;29919;-91
2022/01/27 12:23:16;;;;;;;;;;;;;;;;;;5060888;28;28593;-90
2022/01/27 12:25:41;;;;;;;;;;;;;;;;;;5060336;28;28363;-89
2022/01/27 12:28:06;;;;;;;;;;;;;;;;;;5060460;28;35112;-88
2022/01/27 12:30:31;;;;;;;;;;;;;;;;;;5078248;28;28525;-85
2022/01/27 12:32:56;;;;;;;;;;;;;;;;;;5078428;28;28344;-83
2022/01/27 12:35:21;;;;;;;;;;;;;;;;;;5078695;28;28379;-84
2022/01/27 12:37:47;;;;;;;;;;;;;;;;;;5078245;28;28502;-84
2022/01/27 12:40:12;;;;;;;;;;;;;;;;;;5078304;28;28496;-85
2022/01/27 12:42:38;;;;;;;;;;;;;;;;;;5078228;28;28391;-85
2022/01/27 12:45:04;;;;;;;;;;;;;;;;;;5078387;28;28332;-87
2022/01/27 12:47:30;;;;;;;;;;;;;;;;;;5078181;28;28237;-88
2022/01/27 12:50:04;;;;;;;;;;;;;;;;;;5078040;28;29385;-87
2022/01/27 12:52:31;;;;;;;;;;;;;;;;;;5078324;28;28459;-88
2022/01/27 12:54:56;;;;;;;;;;;;;;;;;;5077793;28;28217;-87
2022/01/27 12:57:22;;;;;;;;;;;;;;;;;;5078044;28;28411;-86
2022/01/27 12:59:47;;;;;;;;;;;;;;;;;;5077937;28;29183;-85
2022/01/27 13:02:12;;;;;;;;;;;;;;;;;;5077688;28;28431;-85
2022/01/27 13:04:37;;;;;;;;;;;;;;;;;;5078022;28;28276;-85
2022/01/27 13:07:03;;;;;;;;;;;;;;;;;;5077924;28;28469;-85
2022/01/27 13:09:28;;;;;;;;;;;;;;;;;;5077740;28;28439;-84
2022/01/27 13:11:55;;;;;;;;;;;;;;;;;;5077721;28;28426;-85
2022/01/27 13:14:20;;;;;;;;;;;;;;;;;;5077604;28;28391;-84
2022/01/27 13:16:50;;;;;;;;;;;;;;;;;;5077655;28;28423;-84
2022/01/27 13:19:29;;;;;;;;;;;;;;;;;;5077418;28;28657;-85
2022/01/27 13:21:54;;;;;;;;;;;;;;;;;;5077429;28;28430;-85
2022/01/27 13:24:20;;;;;;;;;;;;;;;;;;5076415;28;28348;-85
2022/01/27 13:26:46;;;;;;;;;;;;;;;;;;5078046;28;28391;-86
2022/01/27 13:29:11;;;;;;;;;;;;;;;;;;5059250;28;28490;-86
2022/01/27 13:31:36;;;;;;;;;;;;;;;;;;5077606;28;28386;-86
2022/01/27 13:34:02;;;;;;;;;;;;;;;;;;5059268;28;27840;-87
2022/01/27 13:36:27;;;;;;;;;;;;;;;;;;5059334;28;28603;-86
2022/01/27 13:39:00;;;;;;;;;;;;;;;;;;5059187;28;30462;-87
2022/01/27 13:41:27;;;;;;;;;;;;;;;;;;5077029;28;28346;-88
2022/01/27 13:43:52;;;;;;;;;;;;;;;;;;5077377;28;28344;-87
2022/01/27 13:46:18;;;;;;;;;;;;;;;;;;5077381;28;28469;-87
2022/01/27 13:48:43;;;;;;;;;;;;;;;;;;5058781;28;28464;-88
2022/01/27 13:51:08;;;;;;;;;;;;;;;;;;5077474;28;28375;-87
2022/01/27 13:53:33;;;;;;;;;;;;;;;;;;5077308;28;28534;-88
2022/01/27 13:55:58;;;;;;;;;;;;;;;;;;5059046;28;28261;-88
2022/01/27 13:58:25;;;;;;;;;;;;;;;;;;5076849;28;28408;-87
2022/01/27 14:00:52;;;;;;;;;;;;;;;;;;5077239;28;28258;-87
2022/01/27 14:03:18;;;;;;;;;;;;;;;;;;5058744;28;28380;-85
2022/01/27 14:05:43;;;;;;;;;;;;;;;;;;5076854;28;28284;-84
2022/01/27 14:08:08;;;;;;;;;;;;;;;;;;5076680;28;29140;-84
2022/01/27 14:10:41;;;;;;;;;;;;;;;;;;5076809;28;28547;-84
2022/01/27 14:13:09;;;;;;;;;;;;;;;;;;5076737;28;28245;-82
2022/01/27 14:15:34;;;;;;;;;;;;;;;;;;5076909;28;28490;-82
2022/01/27 14:17:59;;;;;;;;;;;;;;;;;;5058178;28;29542;-82
2022/01/27 14:20:25;;;;;;;;;;;;;;;;;;5076751;28;28351;-82
2022/01/27 14:22:51;;;;;;;;;;;;;;;;;;5076843;28;28228;-82
2022/01/27 14:25:22;;;;;;;;;;;;;;;;;;5076693;28;28491;-82
2022/01/27 14:27:47;;;;;;;;;;;;;;;;;;5076554;28;28490;-82
2022/01/27 14:30:13;;;;;;;;;;;;;;;;;;5076421;28;28261;-82
2022/01/27 14:32:38;;;;;;;;;;;;;;;;;;5076485;28;28246;-82
2022/01/27 14:35:06;;;;;;;;;;;;;;;;;;5076532;28;28482;-82
2022/01/27 14:37:32;;;;;;;;;;;;;;;;;;5076187;28;28536;-82
2022/01/27 14:39:57;;;;;;;;;;;;;;;;;;5076124;28;28469;-83
2022/01/27 14:42:25;;;;;;;;;;;;;;;;;;5076388;28;28388;-84
2022/01/27 14:44:51;;;;;;;;;;;;;;;;;;5076288;28;28486;-83
2022/01/27 14:47:16;;;;;;;;;;;;;;;;;;5076182;28;28619;-83
2022/01/27 14:49:44;;;;;;;;;;;;;;;;;;5076120;28;28243;-82
2022/01/27 14:52:13;;;;;;;;;;;;;;;;;;5076058;28;28482;-82
2022/01/27 14:54:38;;;;;;;;;;;;;;;;;;5076099;28;28404;-82
2022/01/27 14:57:04;;;;;;;;;;;;;;;;;;5076008;28;28324;-83
2022/01/27 14:59:29;;;;;;;;;;;;;;;;;;5076036;28;28319;-83
2022/01/27 15:01:54;;;;;;;;;;;;;;;;;;5076045;28;28253;-83
2022/01/27 15:04:19;;;;;;;;;;;;;;;;;;5076080;28;28250;-83
2022/01/27 15:06:44;;;;;;;;;;;;;;;;;;5076129;28;28293;-83
2022/01/27 15:09:09;;;;;;;;;;;;;;;;;;5075933;28;28264;-82
2022/01/27 15:11:35;;;;;;;;;;;;;;;;;;5076073;28;28330;-82
2022/01/27 15:18:48;;;;;;;;;;;;;;;;;;5075818;28;28237;-82
2022/01/27 15:21:54;;;;;;;;;;;;;;;;;;5075994;28;28228;-83
2022/01/27 15:24:20;;;;;;;;;;;;;;;;;;5075716;28;28561;-84
2022/01/27 15:26:46;;;;;;;;;;;;;;;;;;5075564;28;28363;-82
2022/01/27 15:29:11;;;;;;;;;;;;;;;;;;5075873;28;28342;-82
2022/01/27 15:31:37;;;;;;;;;;;;;;;;;;5075524;28;28553;-82
2022/01/27 15:34:02;;;;;;;;;;;;;;;;;;5075846;28;28312;-83
2022/01/27 15:36:27;;;;;;;;;;;;;;;;;;5075427;28;29198;-83
2022/01/27 15:38:53;;;;;;;;;;;;;;;;;;5075356;28;28406;-84
2022/01/27 15:41:19;;;;;;;;;;;;;;;;;;5075462;28;28440;-84
2022/01/27 15:43:44;;;;;;;;;;;;;;;;;;5075419;28;28620;-84
2022/01/27 15:46:09;;;;;;;;;;;;;;;;;;5074863;28;28541;-83
2022/01/27 15:48:34;;;;;;;;;;;;;;;;;;5074915;28;28498;-84
2022/01/27 15:51:00;;;;;;;;;;;;;;;;;;5075352;28;28391;-84
2022/01/27 15:53:25;;;;;;;;;;;;;;;;;;5075367;28;28601;-86
2022/01/27 15:55:50;;;;;;;;;;;;;;;;;;5075129;28;28254;-86
2022/01/27 15:58:15;;;;;;;;;;;;;;;;;;5075366;28;28383;-86
2022/01/27 16:00:40;;;;;;;;;;;;;;;;;;5075251;28;28437;-86
2022/01/27 16:03:05;;;;;;;;;;;;;;;;;;5056999;28;28496;-86
2022/01/27 16:05:30;;;;;;;;;;;;;;;;;;5075318;28;28390;-87
2022/01/27 16:07:55;;;;;;;;;;;;;;;;;;5075066;28;28007;-88
2022/01/27 16:10:20;;;;;;;;;;;;;;;;;;5075452;28;28370;-87
2022/01/27 16:12:52;;;;;;;;;;;;;;;;;;5075185;28;28449;-87
2022/01/27 16:15:17;;;;;;;;;;;;;;;;;;5075014;28;28380;-88
2022/01/27 16:17:42;;;;;;;;;;;;;;;;;;5056946;28;28317;-88
2022/01/27 16:20:07;;;;;;;;;;;;;;;;;;5074799;28;28320;-88
2022/01/27 16:22:33;;;;;;;;;;;;;;;;;;5057088;28;28425;-88
2022/01/27 16:24:58;;;;;;;;;;;;;;;;;;5074763;28;28326;-88
2022/01/27 16:27:23;;;;;;;;;;;;;;;;;;5056740;28;28322;-88
2022/01/27 16:29:50;;;;;;;;;;;;;;;;;;5056970;28;28504;-89
2022/01/27 16:32:15;;;;;;;;;;;;;;;;;;5074996;28;28328;-89
2022/01/27 16:34:40;;;;;;;;;;;;;;;;;;5070150;28;28486;-89
2022/01/27 16:37:05;;;;;;;;;;;;;;;;;;5064728;28;28399;-90
2022/01/27 16:39:30;;;;;;;;;;;;;;;;;;5037886;28;28393;-92
2022/01/27 16:41:55;;;;;;;;;;;;;;;;;;5038168;28;28543;-93
2022/01/27 16:44:21;;;;;;;;;;;;;;;;;;5038790;28;33620;-94
2022/01/27 16:46:46;;;;;;;;;;;;;;;;;;5051107;28;28387;-89
2022/01/27 16:49:14;;;;;;;;;;;;;;;;;;5076248;28;29017;-95
2022/01/27 16:51:39;;;;;;;;;;;;;;;;;;5054461;28;28491;-87
2022/01/27 16:54:04;;;;;;;;;;;;;;;;;;5037889;28;29608;-89
2022/01/27 16:56:29;;;;;;;;;;;;;;;;;;5066446;28;28457;-89
2022/01/27 16:58:54;;;;;;;;;;;;;;;;;;5064936;28;28325;-92
2022/01/27 17:01:20;;;;;;;;;;;;;;;;;;5069426;28;27870;-90
2022/01/27 17:03:46;;;;;;;;;;;;;;;;;;5058516;28;28304;-88
2022/01/27 17:06:11;;;;;;;;;;;;;;;;;;5063191;28;28345;-95
2022/01/27 17:08:36;;;;;;;;;;;;;;;;;;5042469;28;28357;-88
2022/01/27 17:11:01;;;;;;;;;;;;;;;;;;5058590;28;28637;-93
2022/01/27 17:13:26;;;;;;;;;;;;;;;;;;5048256;28;29963;-93
2022/01/27 17:15:51;;;;;;;;;;;;;;;;;;5063620;28;28500;-93
2022/01/27 17:18:16;;;;;;;;;;;;;;;;;;5079334;28;28228;-91
2022/01/27 17:20:43;;;;;;;;;;;;;;;;;;5069591;28;28455;-90
2022/01/27 17:23:08;;;;;;;;;;;;;;;;;;5091673;28;30273;-89
2022/01/27 17:25:33;;;;;;;;;;;;;;;;;;5060480;28;28469;-89
2022/01/27 17:27:58;;;;;;;;;;;;;;;;;;5061214;28;28450;-89
2022/01/27 17:30:23;;;;;;;;;;;;;;;;;;5081409;28;35668;-92
2022/01/27 17:32:48;;;;;;;;;;;;;;;;;;5053597;28;29625;-88
2022/01/27 17:35:13;;;;;;;;;;;;;;;;;;5078530;28;28400;-91
2022/01/27 17:37:41;;;;;;;;;;;;;;;;;;5080035;28;28490;-86
2022/01/27 17:40:06;;;;;;;;;;;;;;;;;;5098460;28;28378;-84